Fykan — LLDJ — position and weather

sailwx.info

Track history (hours):
 
Tides and Currents Weather Stations Pressure Air Temp Water Temp Dewpoint Dewpoint Depression Visibility Wind Speed Wind Dir Waves Ship Positions

Fykan

Last reported at 2017-Jun-27 06:29 UTC. Time now 2017-Jun-27 06:46 UTC.
Position N 66°36' E 013°10'.

Length 52 m; draft 3.3 m.

Type: Ship. MMSI: 259681000.

Date/timePositionNaut miles runAvg speedWind from/ knotsBaromVisibWave heightAir tempDewpointWater temp
2017-Jun-27 06:29N 66°36' E 013°10'4 8.7
2017-Jun-27 06:00N 66°39' E 013°04'3 6.2
2017-Jun-27 05:30N 66°37' E 012°60'3 6.5
2017-Jun-27 05:00N 66°34' E 012°58'3 6.5
2017-Jun-27 04:30N 66°34' E 012°50'4 8.9
2017-Jun-27 04:00N 66°36' E 012°40'0 0.1
2017-Jun-27 03:30N 66°36' E 012°40'0 0.0
2017-Jun-27 03:00N 66°36' E 012°40'0 0.0
2017-Jun-27 02:30N 66°36' E 012°40'0 0.0
2017-Jun-27 01:59N 66°36' E 012°40'0 0.0
2017-Jun-27 01:30N 66°36' E 012°40'0 0.0
2017-Jun-27 01:00N 66°36' E 012°40'0 0.0
2017-Jun-27 00:30N 66°36' E 012°40'0 0.0
2017-Jun-27 00:00N 66°36' E 012°40'0 0.0
2017-Jun-26 23:30N 66°36' E 012°40'0 0.0
2017-Jun-26 23:00N 66°36' E 012°40'0 0.0
2017-Jun-26 22:30N 66°36' E 012°40'0 0.0
2017-Jun-26 22:00N 66°36' E 012°40'0 0.0
2017-Jun-26 21:30N 66°36' E 012°40'0 0.0
2017-Jun-26 21:00N 66°36' E 012°40'0 0.0
2017-Jun-26 20:30N 66°36' E 012°40'0 0.0
2017-Jun-26 20:00N 66°36' E 012°40'0 0.0
2017-Jun-26 19:30N 66°36' E 012°40'0 0.0
2017-Jun-26 19:00N 66°36' E 012°40'0 0.8
2017-Jun-26 18:30N 66°36' E 012°41'4 8.7
2017-Jun-26 18:00N 66°34' E 012°50'4 7.7
2017-Jun-26 17:30N 66°37' E 012°56'3 5.8
2017-Jun-26 17:00N 66°39' E 013°01'3 6.5
2017-Jun-26 16:30N 66°38' E 013°09'3 6.2
2017-Jun-26 15:59N 66°37' E 013°17'2 4.6
2017-Jun-26 15:30N 66°38' E 013°12'3 6.8
2017-Jun-26 15:00N 66°39' E 013°03'6 6.2
2017-Jun-26 14:00N 66°34' E 012°53'3 5.9
2017-Jun-26 13:30N 66°34' E 012°46'3 5.8
2017-Jun-26 13:00N 66°36' E 012°40'0 0.0
2017-Jun-26 12:30N 66°36' E 012°40'0 0.0
2017-Jun-26 12:00N 66°36' E 012°40'1 1.1
2017-Jun-26 11:30N 66°36' E 012°41'7 3.4
2017-Jun-26 09:19N 66°37' E 012°59'5 5.5
2017-Jun-26 08:23N 66°38' E 013°12'2 5.3
2017-Jun-26 08:00N 66°37' E 013°17'2 3.2
2017-Jun-26 07:30N 66°38' E 013°13'4 7.3
2017-Jun-26 06:59N 66°39' E 013°05'3 6.2
2017-Jun-26 06:30N 66°37' E 012°59'4 7.3
2017-Jun-26 06:00N 66°34' E 012°57'3 5.9
2017-Jun-26 05:30N 66°34' E 012°49'4 8.8
2017-Jun-26 05:00N 66°36' E 012°40'0 0.0
2017-Jun-26 04:30N 66°36' E 012°40'0 0.0
2017-Jun-26 04:00N 66°36' E 012°40'0 0.0
2017-Jun-26 03:30N 66°36' E 012°40'0 0.0
2017-Jun-26 03:00N 66°36' E 012°40'0 0.0
2017-Jun-26 02:30N 66°36' E 012°40'0 0.0
2017-Jun-26 02:00N 66°36' E 012°40'0 0.0
2017-Jun-26 01:30N 66°36' E 012°40'0 0.0
2017-Jun-26 01:00N 66°36' E 012°40'0 0.0
2017-Jun-26 00:30N 66°36' E 012°40'0 0.0
2017-Jun-26 00:00N 66°36' E 012°40'0 0.0
2017-Jun-25 23:30N 66°36' E 012°40'0 0.0
2017-Jun-25 23:00N 66°36' E 012°40'0 0.0
2017-Jun-25 22:30N 66°36' E 012°40'0 0.0
2017-Jun-25 22:00N 66°36' E 012°40'0 0.0
2017-Jun-25 21:30N 66°36' E 012°40'2 4.4
2017-Jun-25 21:00N 66°35' E 012°45'3 5.8
2017-Jun-25 20:30N 66°35' E 012°52'4 7.3
2017-Jun-25 20:00N 66°37' E 012°59'3 6.1
2017-Jun-25 19:30N 66°39' E 013°06'5 9.4
2017-Jun-25 19:00N 66°37' E 013°17'3 6.9
2017-Jun-25 18:30N 66°35' E 013°11'5 9.4
2017-Jun-25 17:59N 66°30' E 013°14'2 3.4
2017-Jun-25 17:30N 66°32' E 013°13'4 9.0
2017-Jun-25 17:00N 66°36' E 013°13'1 2.9
2017-Jun-25 16:30N 66°38' E 013°15'4 8.9
2017-Jun-25 16:00N 66°39' E 013°04'3 6.2
2017-Jun-25 15:30N 66°37' E 012°59'3 6.7
2017-Jun-25 15:00N 66°34' E 012°58'3 6.6
2017-Jun-25 14:30N 66°34' E 012°49'4 4.3
2017-Jun-25 13:30N 66°36' E 012°40'0 0.0
2017-Jun-25 12:59N 66°36' E 012°40'0 0.0
2017-Jun-25 12:30N 66°36' E 012°40'0 0.0
2017-Jun-25 12:00N 66°36' E 012°40'0 0.0
2017-Jun-25 11:30N 66°36' E 012°40'0 0.0
2017-Jun-25 11:00N 66°36' E 012°40'0 0.0
2017-Jun-25 10:30N 66°36' E 012°40'0 0.0
2017-Jun-25 10:00N 66°36' E 012°40'0 0.0
2017-Jun-25 09:30N 66°36' E 012°40'0 0.0
2017-Jun-25 09:00N 66°36' E 012°40'0 0.0
2017-Jun-25 08:30N 66°36' E 012°40'0 0.0
2017-Jun-25 08:00N 66°36' E 012°40'0 0.0
2017-Jun-25 07:30N 66°36' E 012°40'0 0.0
2017-Jun-25 07:00N 66°36' E 012°40'0 0.0
2017-Jun-25 06:30N 66°36' E 012°40'0 0.0
2017-Jun-25 06:00N 66°36' E 012°40'0 0.0
2017-Jun-25 05:30N 66°36' E 012°40'0 0.0
2017-Jun-25 05:00N 66°36' E 012°40'3 5.7
2017-Jun-25 04:30N 66°33' E 012°44'510.2
2017-Jun-25 04:00N 66°28' E 012°45'5 9.6
2017-Jun-25 03:30N 66°24' E 012°43'5 9.4
2017-Jun-25 03:00N 66°19' E 012°40'510.1
2017-Jun-25 02:30N 66°14' E 012°39'510.3
2017-Jun-25 02:00N 66°09' E 012°40'510.0
2017-Jun-25 01:30N 66°04' E 012°39'3 5.2
2017-Jun-25 01:00N 66°01' E 012°37'0 0.0
2017-Jun-25 00:29N 66°01' E 012°37'0 0.0
2017-Jun-25 00:00N 66°01' E 012°37'0 0.0
2017-Jun-24 23:29N 66°01' E 012°37'0 0.0
2017-Jun-24 22:59N 66°01' E 012°37'0 0.0
2017-Jun-24 22:30N 66°01' E 012°37'0 0.0
2017-Jun-24 22:00N 66°01' E 012°37'0 0.0
2017-Jun-24 21:30N 66°01' E 012°37'0 0.0
2017-Jun-24 20:59N 66°01' E 012°37'0 0.0
2017-Jun-24 20:30N 66°01' E 012°37'0 0.0
2017-Jun-24 20:00N 66°01' E 012°37'0 0.0
2017-Jun-24 19:30N 66°01' E 012°37'0 0.0
2017-Jun-24 19:00N 66°01' E 012°37'0 0.0
2017-Jun-24 18:30N 66°01' E 012°37'0 0.0
2017-Jun-24 18:00N 66°01' E 012°37'0 0.0
2017-Jun-24 17:30N 66°01' E 012°37'0 0.0
2017-Jun-24 16:59N 66°01' E 012°37'0 0.0
2017-Jun-24 16:30N 66°01' E 012°37'0 0.0
2017-Jun-24 16:00N 66°01' E 012°37'1 1.6
2017-Jun-24 15:30N 66°02' E 012°39'4 8.1
2017-Jun-24 15:00N 66°06' E 012°40'8 8.4
2017-Jun-24 14:00N 66°14' E 012°39'4 8.4
2017-Jun-24 13:31N 66°19' E 012°39'4 8.3
2017-Jun-24 13:00N 66°23' E 012°42'4 7.8
2017-Jun-24 12:30N 66°26' E 012°44'4 8.0
2017-Jun-24 12:00N 66°30' E 012°45'4 8.5
2017-Jun-24 11:30N 66°35' E 012°43'2 3.4
2017-Jun-24 11:00N 66°36' E 012°40'2 4.1
2017-Jun-24 10:30N 66°35' E 012°44'3 6.7
2017-Jun-24 10:00N 66°34' E 012°53'3 5.5
2017-Jun-24 09:30N 66°35' E 012°59'3 6.8
2017-Jun-24 09:00N 66°39' E 013°01'3 6.6
2017-Jun-24 08:30N 66°38' E 013°09'3 6.2
2017-Jun-24 08:00N 66°37' E 013°17'2 3.7
2017-Jun-24 07:29N 66°38' E 013°12'4 7.1
2017-Jun-24 07:00N 66°39' E 013°04'3 6.4
2017-Jun-24 06:30N 66°37' E 012°60'3 6.5
2017-Jun-24 06:00N 66°34' E 012°58'3 6.7
2017-Jun-24 05:30N 66°34' E 012°49'4 8.7
2017-Jun-24 05:00N 66°36' E 012°40'0 0.1
2017-Jun-24 04:30N 66°36' E 012°40'0 0.0
2017-Jun-24 04:00N 66°36' E 012°40'0 0.0
2017-Jun-24 03:30N 66°36' E 012°40'0 0.0
2017-Jun-24 03:00N 66°36' E 012°40'0 0.0
2017-Jun-24 02:30N 66°36' E 012°40'0 0.0
2017-Jun-24 02:00N 66°36' E 012°40'0 0.0
2017-Jun-24 01:30N 66°36' E 012°40'0 0.0
2017-Jun-24 01:00N 66°36' E 012°40'0 0.0
2017-Jun-24 00:30N 66°36' E 012°40'0 0.0
2017-Jun-24 00:00N 66°36' E 012°40'0 0.0
2017-Jun-23 23:30N 66°36' E 012°40'0 0.0
2017-Jun-23 23:00N 66°36' E 012°40'0 0.0
2017-Jun-23 22:30N 66°36' E 012°40'0 0.0
2017-Jun-23 22:00N 66°36' E 012°40'0 0.0
2017-Jun-23 21:30N 66°36' E 012°40'1 1.6
2017-Jun-23 21:01N 66°36' E 012°42'4 8.1
2017-Jun-23 20:30N 66°34' E 012°50'3 6.8
2017-Jun-23 20:00N 66°35' E 012°59'3 5.8
2017-Jun-23 19:30N 66°37' E 012°59'3 6.1
2017-Jun-23 19:00N 66°39' E 013°06'4 8.9
2017-Jun-23 18:30N 66°37' E 013°17'1 1.6
2017-Jun-23 17:59N 66°38' E 013°15'5 9.3
2017-Jun-23 17:30N 66°39' E 013°04'3 6.2
2017-Jun-23 17:00N 66°37' E 012°60'4 7.0
2017-Jun-23 16:30N 66°34' E 012°57'4 7.7
2017-Jun-23 16:00N 66°34' E 012°47'4 7.0
2017-Jun-23 15:30N 66°36' E 012°40'0 0.0
2017-Jun-23 15:00N 66°36' E 012°40'0 0.0
2017-Jun-23 14:00N 66°36' E 012°40'0 0.0
2017-Jun-23 13:30N 66°36' E 012°40'0 0.0
2017-Jun-23 13:00N 66°36' E 012°40'0 0.0
2017-Jun-23 12:30N 66°36' E 012°40'0 0.0
2017-Jun-23 12:00N 66°36' E 012°40'1 1.1
2017-Jun-23 11:30N 66°36' E 012°41'4 8.4
2017-Jun-23 10:59N 66°34' E 012°50'3 7.0
2017-Jun-23 10:30N 66°35' E 012°59'3 5.0
2017-Jun-23 10:00N 66°37' E 012°59'3 5.8
2017-Jun-23 09:30N 66°39' E 013°05'5 9.5
2017-Jun-23 08:59N 66°38' E 013°16'1 2.7
2017-Jun-23 08:30N 66°37' E 013°13'5 9.2
2017-Jun-23 08:00N 66°32' E 013°13'3 5.0
2017-Jun-23 07:30N 66°30' E 013°14'4 8.3
2017-Jun-23 07:00N 66°33' E 013°09'4 8.3
2017-Jun-23 06:30N 66°37' E 013°04'2 3.7
2017-Jun-23 06:00N 66°38' E 013°01'4 7.3
2017-Jun-23 05:30N 66°35' E 012°59'3 5.9
2017-Jun-23 05:00N 66°34' E 012°52'1 2.3
2017-Jun-23 04:30N 66°34' E 012°49'4 8.3
2017-Jun-23 04:00N 66°36' E 012°40'0 0.0
2017-Jun-23 03:30N 66°36' E 012°40'0 0.0
2017-Jun-23 03:00N 66°36' E 012°40'0 0.0
2017-Jun-23 02:30N 66°36' E 012°40'0 0.0
2017-Jun-23 02:00N 66°36' E 012°40'0 0.0
2017-Jun-23 01:29N 66°36' E 012°40'0 0.0
2017-Jun-23 01:00N 66°36' E 012°40'0 0.0
2017-Jun-23 00:30N 66°36' E 012°40'0 0.0
2017-Jun-23 00:00N 66°36' E 012°40'0 0.0
2017-Jun-22 23:30N 66°36' E 012°40'0 0.0
2017-Jun-22 23:00N 66°36' E 012°40'0 0.0
2017-Jun-22 22:30N 66°36' E 012°40'0 0.0
2017-Jun-22 22:00N 66°36' E 012°40'0 0.0
2017-Jun-22 21:30N 66°36' E 012°40'0 0.0
2017-Jun-22 21:00N 66°36' E 012°40'0 0.0
2017-Jun-22 20:30N 66°36' E 012°40'0 0.0
2017-Jun-22 20:00N 66°36' E 012°40'0 0.0
2017-Jun-22 19:30N 66°36' E 012°40'0 0.0
2017-Jun-22 19:00N 66°36' E 012°40'0 0.0
2017-Jun-22 18:30N 66°36' E 012°40'4 7.7
2017-Jun-22 18:00N 66°34' E 012°48'4 7.0
2017-Jun-22 17:30N 66°36' E 012°55'4 7.0
2017-Jun-22 16:59N 66°39' E 013°01'3 6.8
2017-Jun-22 16:30N 66°38' E 013°10'3 6.1
2017-Jun-22 16:00N 66°37' E 013°17'4 7.0
2017-Jun-22 15:30N 66°38' E 013°09'2 4.7
2017-Jun-22 15:00N 66°39' E 013°03'4 7.6
2017-Jun-22 14:30N 66°35' E 012°59'5 5.2
2017-Jun-22 13:30N 66°34' E 012°46'3 5.6
2017-Jun-22 13:00N 66°36' E 012°40'0 0.0
2017-Jun-22 12:30N 66°36' E 012°40'0 0.0
2017-Jun-22 12:00N 66°36' E 012°40'1 1.6
2017-Jun-22 11:30N 66°36' E 012°42'4 8.2
2017-Jun-22 11:00N 66°34' E 012°50'3 6.8
2017-Jun-22 10:30N 66°35' E 012°59'2 4.6
2017-Jun-22 10:00N 66°37' E 012°60'3 5.1
2017-Jun-22 09:30N 66°39' E 013°03'3 5.8
2017-Jun-22 09:00N 66°38' E 013°11'3 5.4
2017-Jun-22 08:29N 66°37' E 013°17'0 0.0
2017-Jun-22 08:00N 66°37' E 013°17'2 3.3
2017-Jun-22 07:30N 66°38' E 013°13'4 7.6
2017-Jun-22 07:00N 66°39' E 013°05'3 6.3
2017-Jun-22 06:30N 66°37' E 012°59'3 7.1
2017-Jun-22 06:00N 66°34' E 012°57'3 5.8
2017-Jun-22 05:30N 66°34' E 012°49'4 8.9
2017-Jun-22 05:00N 66°36' E 012°40'0 0.1
2017-Jun-22 04:29N 66°36' E 012°40'0 0.0
2017-Jun-22 04:00N 66°36' E 012°40'0 0.0
2017-Jun-22 03:30N 66°36' E 012°40'0 0.0
2017-Jun-22 03:00N 66°36' E 012°40'0 0.0
2017-Jun-22 02:30N 66°36' E 012°40'0 0.0
2017-Jun-22 02:00N 66°36' E 012°40'0 0.0
2017-Jun-22 01:30N 66°36' E 012°40'0 0.0
2017-Jun-22 01:00N 66°36' E 012°40'0 0.0
2017-Jun-22 00:30N 66°36' E 012°40'0 0.0
2017-Jun-22 00:00N 66°36' E 012°40'0 0.0
2017-Jun-21 23:30N 66°36' E 012°40'0 0.0
2017-Jun-21 23:00N 66°36' E 012°40'0 0.0
2017-Jun-21 22:30N 66°36' E 012°40'0 0.0
2017-Jun-21 22:00N 66°36' E 012°40'0 0.0
2017-Jun-21 21:30N 66°36' E 012°40'2 3.8
2017-Jun-21 21:00N 66°35' E 012°44'3 6.6
2017-Jun-21 20:30N 66°34' E 012°52'3 5.9
2017-Jun-21 20:00N 66°35' E 012°59'4 7.1
2017-Jun-21 19:29N 66°39' E 013°01'3 6.5
2017-Jun-21 19:00N 66°38' E 013°09'3 6.5
2017-Jun-21 18:30N 66°37' E 013°17'0 0.2
2017-Jun-21 18:00N 66°37' E 013°17'0 0.3
2017-Jun-21 17:30N 66°37' E 013°17'0 0.0
2017-Jun-21 17:00N 66°37' E 013°17'0 0.0
2017-Jun-21 16:30N 66°37' E 013°17'0 0.1
2017-Jun-21 16:00N 66°37' E 013°17'2 4.6
2017-Jun-21 15:30N 66°38' E 013°11'3 6.6
2017-Jun-21 15:00N 66°39' E 013°03'6 6.2
2017-Jun-21 14:00N 66°34' E 012°54'3 6.7
2017-Jun-21 13:30N 66°34' E 012°46'3 1.5
2017-Jun-21 11:38N 66°36' E 012°40'0 0.0
2017-Jun-21 11:00N 66°36' E 012°40'3 5.5
2017-Jun-21 10:30N 66°34' E 012°46'4 6.9
2017-Jun-21 09:57N 66°34' E 012°55'3 5.7
2017-Jun-21 09:30N 66°36' E 012°59'3 6.0
2017-Jun-21 08:58N 66°39' E 013°02'1 0.4
2017-Jun-21 06:55N 66°39' E 013°04'3 6.5
2017-Jun-21 06:28N 66°37' E 012°59'4 7.7
2017-Jun-21 06:00N 66°33' E 012°56'3 5.7
2017-Jun-21 05:29N 66°34' E 012°49'4 0.5
2017-Jun-20 20:49N 66°36' E 012°40'3 9.4
2017-Jun-20 20:29N 66°36' E 012°48'5 6.0
2017-Jun-20 19:43N 66°36' E 012°59'1 5.6
2017-Jun-20 19:30N 66°37' E 012°59'3 1.7
2017-Jun-20 17:36N 66°39' E 013°06'1 4.4
2017-Jun-20 17:27N 66°39' E 013°04'3 6.7
2017-Jun-20 17:00N 66°37' E 012°59'4 7.3
2017-Jun-20 16:29N 66°34' E 012°56'3 6.6
2017-Jun-20 15:59N 66°34' E 012°47'4 1.4
2017-Jun-20 13:27N 66°36' E 012°40'0 0.0
2017-Jun-20 12:38N 66°36' E 012°40'0 0.0
2017-Jun-20 11:19N 66°36' E 012°40'3 9.4
2017-Jun-20 11:00N 66°34' E 012°46'3 6.7
2017-Jun-20 10:30N 66°34' E 012°55'3 5.7
2017-Jun-20 09:57N 66°36' E 012°59'3 5.1
2017-Jun-20 09:27N 66°39' E 013°02'2 4.1
2017-Jun-20 09:00N 66°39' E 013°06'4 3.8
2017-Jun-20 07:53N 66°35' E 013°11'4 9.6
2017-Jun-20 07:30N 66°31' E 013°13'1 2.5
2017-Jun-20 06:59N 66°30' E 013°14'4 9.0
2017-Jun-20 06:30N 66°34' E 013°08'5 8.6
2017-Jun-20 05:54N 66°39' E 013°04'2 5.9
2017-Jun-20 05:30N 66°38' E 012°60'4 7.9
2017-Jun-20 04:58N 66°34' E 012°57'3 7.0
2017-Jun-20 04:29N 66°34' E 012°49'4 0.4
2017-Jun-19 18:52N 66°36' E 012°40'3 9.1
2017-Jun-19 18:30N 66°34' E 012°47'3 6.8
2017-Jun-19 18:00N 66°34' E 012°56'3 6.0
2017-Jun-19 17:28N 66°36' E 012°59'3 5.4
2017-Jun-19 16:59N 66°39' E 013°02'2 0.9
2017-Jun-19 15:11N 66°39' E 013°06'1 4.2
2017-Jun-19 14:59N 66°39' E 013°04'4 7.5
2017-Jun-19 14:30N 66°36' E 012°59'6 5.6
2017-Jun-19 13:30N 66°34' E 012°46'3 4.2
2017-Jun-19 12:51N 66°36' E 012°40'0 0.0
2017-Jun-19 12:30N 66°36' E 012°40'0 0.0
2017-Jun-19 12:00N 66°36' E 012°40'0 0.0
2017-Jun-19 11:30N 66°36' E 012°40'4 8.4
2017-Jun-19 11:00N 66°34' E 012°49'3 5.7
2017-Jun-19 10:30N 66°33' E 012°56'3 5.5
2017-Jun-19 10:00N 66°36' E 012°59'1 2.6
2017-Jun-19 09:30N 66°37' E 012°59'3 5.7
2017-Jun-19 08:59N 66°39' E 013°04'3 6.5
2017-Jun-19 08:30N 66°38' E 013°12'2 4.3
2017-Jun-19 08:00N 66°37' E 013°17'2 3.3
2017-Jun-19 07:30N 66°38' E 013°13'4 7.5
2017-Jun-19 07:00N 66°39' E 013°04'3 6.3
2017-Jun-19 06:30N 66°37' E 012°60'3 6.9
2017-Jun-19 06:00N 66°34' E 012°57'3 6.0
2017-Jun-19 05:30N 66°34' E 012°49'4 8.7
2017-Jun-19 05:00N 66°36' E 012°40'0 0.1
2017-Jun-19 04:30N 66°36' E 012°40'0 0.0
2017-Jun-19 04:00N 66°36' E 012°40'0 0.0
2017-Jun-19 03:30N 66°36' E 012°40'0 0.0
2017-Jun-19 03:00N 66°36' E 012°40'0 0.0
2017-Jun-19 02:30N 66°36' E 012°40'0 0.0
2017-Jun-19 02:00N 66°36' E 012°40'0 0.0
2017-Jun-19 01:30N 66°36' E 012°40'0 0.0
2017-Jun-19 01:00N 66°36' E 012°40'0 0.0
2017-Jun-19 00:30N 66°36' E 012°40'0 0.0
2017-Jun-19 00:00N 66°36' E 012°40'0 0.0
2017-Jun-18 23:30N 66°36' E 012°40'0 0.0
2017-Jun-18 23:00N 66°36' E 012°40'0 0.0
2017-Jun-18 22:30N 66°36' E 012°40'0 0.0
2017-Jun-18 21:59N 66°36' E 012°40'1 1.4
2017-Jun-18 21:30N 66°36' E 012°41'4 8.5
2017-Jun-18 21:00N 66°34' E 012°50'3 6.9
2017-Jun-18 20:30N 66°35' E 012°59'3 5.8
2017-Jun-18 20:00N 66°38' E 012°59'3 5.5
2017-Jun-18 19:30N 66°39' E 013°05'5 9.1
2017-Jun-18 19:00N 66°38' E 013°16'3 6.1
2017-Jun-18 18:30N 66°35' E 013°11'4 9.0
2017-Jun-18 18:00N 66°31' E 013°14'1 1.1
2017-Jun-18 17:30N 66°31' E 013°13'4 8.6
2017-Jun-18 16:59N 66°36' E 013°12'3 5.1
2017-Jun-18 16:30N 66°38' E 013°16'5 9.5
2017-Jun-18 16:00N 66°39' E 013°04'3 6.0
2017-Jun-18 15:30N 66°37' E 012°60'3 5.9
2017-Jun-18 15:00N 66°34' E 012°58'8 7.6
2017-Jun-18 14:00N 66°36' E 012°40'0 0.0
2017-Jun-18 13:30N 66°36' E 012°40'0 0.0
2017-Jun-18 13:00N 66°36' E 012°40'0 0.0
2017-Jun-18 12:29N 66°36' E 012°40'0 0.0
2017-Jun-18 11:59N 66°36' E 012°40'0 0.0
2017-Jun-18 11:30N 66°36' E 012°40'0 0.0
2017-Jun-18 11:00N 66°36' E 012°40'0 0.0
2017-Jun-18 10:30N 66°36' E 012°40'0 0.0
2017-Jun-18 10:00N 66°36' E 012°40'0 0.0
2017-Jun-18 09:29N 66°36' E 012°40'0 0.0
2017-Jun-18 08:59N 66°36' E 012°40'0 0.0
2017-Jun-18 08:30N 66°36' E 012°40'0 0.0
2017-Jun-18 08:00N 66°36' E 012°40'0 0.0
2017-Jun-18 07:30N 66°36' E 012°40'0 0.0
2017-Jun-18 07:00N 66°36' E 012°40'0 0.0
2017-Jun-18 06:30N 66°36' E 012°40'0 0.0
2017-Jun-18 06:00N 66°36' E 012°40'0 0.0
2017-Jun-18 05:30N 66°36' E 012°40'0 0.0
2017-Jun-18 05:00N 66°36' E 012°40'0 0.0
2017-Jun-18 04:30N 66°36' E 012°40'0 0.0
2017-Jun-18 03:59N 66°36' E 012°40'0 0.0
2017-Jun-18 03:30N 66°36' E 012°40'0 0.0
2017-Jun-18 03:00N 66°36' E 012°40'0 0.0
2017-Jun-18 02:30N 66°36' E 012°40'0 0.0
2017-Jun-18 02:00N 66°36' E 012°40'0 0.0
2017-Jun-18 01:30N 66°36' E 012°40'0 0.0
2017-Jun-18 01:00N 66°36' E 012°40'0 0.0
2017-Jun-18 00:30N 66°36' E 012°40'0 0.0
2017-Jun-18 00:00N 66°36' E 012°40'0 0.0
2017-Jun-17 23:29N 66°36' E 012°40'0 0.0
2017-Jun-17 23:00N 66°36' E 012°40'0 0.0
2017-Jun-17 22:29N 66°36' E 012°40'0 0.0
2017-Jun-17 22:00N 66°36' E 012°40'0 0.0
2017-Jun-17 21:30N 66°36' E 012°40'0 0.0
2017-Jun-17 21:00N 66°36' E 012°40'0 0.0
2017-Jun-17 20:30N 66°36' E 012°40'0 0.0
2017-Jun-17 20:00N 66°36' E 012°40'0 0.0
2017-Jun-17 19:30N 66°36' E 012°40'0 0.0
2017-Jun-17 19:00N 66°36' E 012°40'0 0.0
2017-Jun-17 18:30N 66°36' E 012°40'0 0.0
2017-Jun-17 18:00N 66°36' E 012°40'0 0.0
2017-Jun-17 17:30N 66°36' E 012°40'0 0.0
2017-Jun-17 17:00N 66°36' E 012°40'0 0.0
2017-Jun-17 16:30N 66°36' E 012°40'0 0.0
2017-Jun-17 16:00N 66°36' E 012°40'0 0.0
2017-Jun-17 15:30N 66°36' E 012°40'0 0.0
2017-Jun-17 15:00N 66°36' E 012°40'0 0.0
2017-Jun-17 14:30N 66°36' E 012°40'0 0.0
2017-Jun-17 13:30N 66°36' E 012°40'0 0.0
2017-Jun-17 13:00N 66°36' E 012°40'0 0.0
2017-Jun-17 12:30N 66°36' E 012°40'0 0.0
2017-Jun-17 12:00N 66°36' E 012°40'0 0.0
2017-Jun-17 11:30N 66°36' E 012°40'0 0.0
2017-Jun-17 10:59N 66°36' E 012°40'1 2.9
2017-Jun-17 10:31N 66°35' E 012°43'4 7.9
2017-Jun-17 10:00N 66°34' E 012°53'3 5.8
2017-Jun-17 09:30N 66°36' E 012°59'3 6.1
2017-Jun-17 09:00N 66°39' E 013°01'3 6.8
2017-Jun-17 08:30N 66°38' E 013°10'3 6.1
2017-Jun-17 08:00N 66°37' E 013°17'2 3.2
2017-Jun-17 07:30N 66°38' E 013°13'4 7.6
2017-Jun-17 07:00N 66°39' E 013°04'3 6.2
2017-Jun-17 06:30N 66°37' E 012°60'  
Track history (hours):
 
Tides and Currents Weather Stations Pressure Air Temp Water Temp Dewpoint Dewpoint Depression Visibility Wind Speed Wind Dir Waves Ship Positions

Fykan

Last reported at 2017-Jun-27 06:29 UTC. Time now 2017-Jun-27 06:46 UTC.
Position N 66°36' E 013°10'.

Length 52 m; draft 3.3 m.

Type: Ship. MMSI: 259681000.

Date/timePositionNaut miles runAvg speedWind from/ knotsBaromVisibWave heightAir tempDewpointWater temp
2017-Jun-27 06:29N 66°36' E 013°10'4 8.7
2017-Jun-27 06:00N 66°39' E 013°04'3 6.2
2017-Jun-27 05:30N 66°37' E 012°60'3 6.5
2017-Jun-27 05:00N 66°34' E 012°58'3 6.5
2017-Jun-27 04:30N 66°34' E 012°50'4 8.9
2017-Jun-27 04:00N 66°36' E 012°40'0 0.1
2017-Jun-27 03:30N 66°36' E 012°40'0 0.0
2017-Jun-27 03:00N 66°36' E 012°40'0 0.0
2017-Jun-27 02:30N 66°36' E 012°40'0 0.0
2017-Jun-27 01:59N 66°36' E 012°40'0 0.0
2017-Jun-27 01:30N 66°36' E 012°40'0 0.0
2017-Jun-27 01:00N 66°36' E 012°40'0 0.0
2017-Jun-27 00:30N 66°36' E 012°40'0 0.0
2017-Jun-27 00:00N 66°36' E 012°40'0 0.0
2017-Jun-26 23:30N 66°36' E 012°40'0 0.0
2017-Jun-26 23:00N 66°36' E 012°40'0 0.0
2017-Jun-26 22:30N 66°36' E 012°40'0 0.0
2017-Jun-26 22:00N 66°36' E 012°40'0 0.0
2017-Jun-26 21:30N 66°36' E 012°40'0 0.0
2017-Jun-26 21:00N 66°36' E 012°40'0 0.0
2017-Jun-26 20:30N 66°36' E 012°40'0 0.0
2017-Jun-26 20:00N 66°36' E 012°40'0 0.0
2017-Jun-26 19:30N 66°36' E 012°40'0 0.0
2017-Jun-26 19:00N 66°36' E 012°40'0 0.8
2017-Jun-26 18:30N 66°36' E 012°41'4 8.7
2017-Jun-26 18:00N 66°34' E 012°50'4 7.7
2017-Jun-26 17:30N 66°37' E 012°56'3 5.8
2017-Jun-26 17:00N 66°39' E 013°01'3 6.5
2017-Jun-26 16:30N 66°38' E 013°09'3 6.2
2017-Jun-26 15:59N 66°37' E 013°17'2 4.6
2017-Jun-26 15:30N 66°38' E 013°12'3 6.8
2017-Jun-26 15:00N 66°39' E 013°03'6 6.2
2017-Jun-26 14:00N 66°34' E 012°53'3 5.9
2017-Jun-26 13:30N 66°34' E 012°46'3 5.8
2017-Jun-26 13:00N 66°36' E 012°40'0 0.0
2017-Jun-26 12:30N 66°36' E 012°40'0 0.0
2017-Jun-26 12:00N 66°36' E 012°40'1 1.1
2017-Jun-26 11:30N 66°36' E 012°41'7 3.4
2017-Jun-26 09:19N 66°37' E 012°59'5 5.5
2017-Jun-26 08:23N 66°38' E 013°12'2 5.3
2017-Jun-26 08:00N 66°37' E 013°17'2 3.2
2017-Jun-26 07:30N 66°38' E 013°13'4 7.3
2017-Jun-26 06:59N 66°39' E 013°05'3 6.2
2017-Jun-26 06:30N 66°37' E 012°59'4 7.3
2017-Jun-26 06:00N 66°34' E 012°57'3 5.9
2017-Jun-26 05:30N 66°34' E 012°49'4 8.8
2017-Jun-26 05:00N 66°36' E 012°40'0 0.0
2017-Jun-26 04:30N 66°36' E 012°40'0 0.0
2017-Jun-26 04:00N 66°36' E 012°40'0 0.0
2017-Jun-26 03:30N 66°36' E 012°40'0 0.0
2017-Jun-26 03:00N 66°36' E 012°40'0 0.0
2017-Jun-26 02:30N 66°36' E 012°40'0 0.0
2017-Jun-26 02:00N 66°36' E 012°40'0 0.0
2017-Jun-26 01:30N 66°36' E 012°40'0 0.0
2017-Jun-26 01:00N 66°36' E 012°40'0 0.0
2017-Jun-26 00:30N 66°36' E 012°40'0 0.0
2017-Jun-26 00:00N 66°36' E 012°40'0 0.0
2017-Jun-25 23:30N 66°36' E 012°40'0 0.0
2017-Jun-25 23:00N 66°36' E 012°40'0 0.0
2017-Jun-25 22:30N 66°36' E 012°40'0 0.0
2017-Jun-25 22:00N 66°36' E 012°40'0 0.0
2017-Jun-25 21:30N 66°36' E 012°40'2 4.4
2017-Jun-25 21:00N 66°35' E 012°45'3 5.8
2017-Jun-25 20:30N 66°35' E 012°52'4 7.3
2017-Jun-25 20:00N 66°37' E 012°59'3 6.1
2017-Jun-25 19:30N 66°39' E 013°06'5 9.4
2017-Jun-25 19:00N 66°37' E 013°17'3 6.9
2017-Jun-25 18:30N 66°35' E 013°11'5 9.4
2017-Jun-25 17:59N 66°30' E 013°14'2 3.4
2017-Jun-25 17:30N 66°32' E 013°13'4 9.0
2017-Jun-25 17:00N 66°36' E 013°13'1 2.9
2017-Jun-25 16:30N 66°38' E 013°15'4 8.9
2017-Jun-25 16:00N 66°39' E 013°04'3 6.2
2017-Jun-25 15:30N 66°37' E 012°59'3 6.7
2017-Jun-25 15:00N 66°34' E 012°58'3 6.6
2017-Jun-25 14:30N 66°34' E 012°49'4 4.3
2017-Jun-25 13:30N 66°36' E 012°40'0 0.0
2017-Jun-25 12:59N 66°36' E 012°40'0 0.0
2017-Jun-25 12:30N 66°36' E 012°40'0 0.0
2017-Jun-25 12:00N 66°36' E 012°40'0 0.0
2017-Jun-25 11:30N 66°36' E 012°40'0 0.0
2017-Jun-25 11:00N 66°36' E 012°40'0 0.0
2017-Jun-25 10:30N 66°36' E 012°40'0 0.0
2017-Jun-25 10:00N 66°36' E 012°40'0 0.0
2017-Jun-25 09:30N 66°36' E 012°40'0 0.0
2017-Jun-25 09:00N 66°36' E 012°40'0 0.0
2017-Jun-25 08:30N 66°36' E 012°40'0 0.0
2017-Jun-25 08:00N 66°36' E 012°40'0 0.0
2017-Jun-25 07:30N 66°36' E 012°40'0 0.0
2017-Jun-25 07:00N 66°36' E 012°40'0 0.0
2017-Jun-25 06:30N 66°36' E 012°40'0 0.0
2017-Jun-25 06:00N 66°36' E 012°40'0 0.0
2017-Jun-25 05:30N 66°36' E 012°40'0 0.0
2017-Jun-25 05:00N 66°36' E 012°40'3 5.7
2017-Jun-25 04:30N 66°33' E 012°44'510.2
2017-Jun-25 04:00N 66°28' E 012°45'5 9.6
2017-Jun-25 03:30N 66°24' E 012°43'5 9.4
2017-Jun-25 03:00N 66°19' E 012°40'510.1
2017-Jun-25 02:30N 66°14' E 012°39'510.3
2017-Jun-25 02:00N 66°09' E 012°40'510.0
2017-Jun-25 01:30N 66°04' E 012°39'3 5.2
2017-Jun-25 01:00N 66°01' E 012°37'0 0.0
2017-Jun-25 00:29N 66°01' E 012°37'0 0.0
2017-Jun-25 00:00N 66°01' E 012°37'0 0.0
2017-Jun-24 23:29N 66°01' E 012°37'0 0.0
2017-Jun-24 22:59N 66°01' E 012°37'0 0.0
2017-Jun-24 22:30N 66°01' E 012°37'0 0.0
2017-Jun-24 22:00N 66°01' E 012°37'0 0.0
2017-Jun-24 21:30N 66°01' E 012°37'0 0.0
2017-Jun-24 20:59N 66°01' E 012°37'0 0.0
2017-Jun-24 20:30N 66°01' E 012°37'0 0.0
2017-Jun-24 20:00N 66°01' E 012°37'0 0.0
2017-Jun-24 19:30N 66°01' E 012°37'0 0.0
2017-Jun-24 19:00N 66°01' E 012°37'0 0.0
2017-Jun-24 18:30N 66°01' E 012°37'0 0.0
2017-Jun-24 18:00N 66°01' E 012°37'0 0.0
2017-Jun-24 17:30N 66°01' E 012°37'0 0.0
2017-Jun-24 16:59N 66°01' E 012°37'0 0.0
2017-Jun-24 16:30N 66°01' E 012°37'0 0.0
2017-Jun-24 16:00N 66°01' E 012°37'1 1.6
2017-Jun-24 15:30N 66°02' E 012°39'4 8.1
2017-Jun-24 15:00N 66°06' E 012°40'8 8.4
2017-Jun-24 14:00N 66°14' E 012°39'4 8.4
2017-Jun-24 13:31N 66°19' E 012°39'4 8.3
2017-Jun-24 13:00N 66°23' E 012°42'4 7.8
2017-Jun-24 12:30N 66°26' E 012°44'4 8.0
2017-Jun-24 12:00N 66°30' E 012°45'4 8.5
2017-Jun-24 11:30N 66°35' E 012°43'2 3.4
2017-Jun-24 11:00N 66°36' E 012°40'2 4.1
2017-Jun-24 10:30N 66°35' E 012°44'3 6.7
2017-Jun-24 10:00N 66°34' E 012°53'3 5.5
2017-Jun-24 09:30N 66°35' E 012°59'3 6.8
2017-Jun-24 09:00N 66°39' E 013°01'3 6.6
2017-Jun-24 08:30N 66°38' E 013°09'3 6.2
2017-Jun-24 08:00N 66°37' E 013°17'2 3.7
2017-Jun-24 07:29N 66°38' E 013°12'4 7.1
2017-Jun-24 07:00N 66°39' E 013°04'3 6.4
2017-Jun-24 06:30N 66°37' E 012°60'3 6.5
2017-Jun-24 06:00N 66°34' E 012°58'3 6.7
2017-Jun-24 05:30N 66°34' E 012°49'4 8.7
2017-Jun-24 05:00N 66°36' E 012°40'0 0.1
2017-Jun-24 04:30N 66°36' E 012°40'0 0.0
2017-Jun-24 04:00N 66°36' E 012°40'0 0.0
2017-Jun-24 03:30N 66°36' E 012°40'0 0.0
2017-Jun-24 03:00N 66°36' E 012°40'0 0.0
2017-Jun-24 02:30N 66°36' E 012°40'0 0.0
2017-Jun-24 02:00N 66°36' E 012°40'0 0.0
2017-Jun-24 01:30N 66°36' E 012°40'0 0.0
2017-Jun-24 01:00N 66°36' E 012°40'0 0.0
2017-Jun-24 00:30N 66°36' E 012°40'0 0.0
2017-Jun-24 00:00N 66°36' E 012°40'0 0.0
2017-Jun-23 23:30N 66°36' E 012°40'0 0.0
2017-Jun-23 23:00N 66°36' E 012°40'0 0.0
2017-Jun-23 22:30N 66°36' E 012°40'0 0.0
2017-Jun-23 22:00N 66°36' E 012°40'0 0.0
2017-Jun-23 21:30N 66°36' E 012°40'1 1.6
2017-Jun-23 21:01N 66°36' E 012°42'4 8.1
2017-Jun-23 20:30N 66°34' E 012°50'3 6.8
2017-Jun-23 20:00N 66°35' E 012°59'3 5.8
2017-Jun-23 19:30N 66°37' E 012°59'3 6.1
2017-Jun-23 19:00N 66°39' E 013°06'4 8.9
2017-Jun-23 18:30N 66°37' E 013°17'1 1.6
2017-Jun-23 17:59N 66°38' E 013°15'5 9.3
2017-Jun-23 17:30N 66°39' E 013°04'3 6.2
2017-Jun-23 17:00N 66°37' E 012°60'4 7.0
2017-Jun-23 16:30N 66°34' E 012°57'4 7.7
2017-Jun-23 16:00N 66°34' E 012°47'4 7.0
2017-Jun-23 15:30N 66°36' E 012°40'0 0.0
2017-Jun-23 15:00N 66°36' E 012°40'0 0.0
2017-Jun-23 14:00N 66°36' E 012°40'0 0.0
2017-Jun-23 13:30N 66°36' E 012°40'0 0.0
2017-Jun-23 13:00N 66°36' E 012°40'0 0.0
2017-Jun-23 12:30N 66°36' E 012°40'0 0.0
2017-Jun-23 12:00N 66°36' E 012°40'1 1.1
2017-Jun-23 11:30N 66°36' E 012°41'4 8.4
2017-Jun-23 10:59N 66°34' E 012°50'3 7.0
2017-Jun-23 10:30N 66°35' E 012°59'3 5.0
2017-Jun-23 10:00N 66°37' E 012°59'3 5.8
2017-Jun-23 09:30N 66°39' E 013°05'5 9.5
2017-Jun-23 08:59N 66°38' E 013°16'1 2.7
2017-Jun-23 08:30N 66°37' E 013°13'5 9.2
2017-Jun-23 08:00N 66°32' E 013°13'3 5.0
2017-Jun-23 07:30N 66°30' E 013°14'4 8.3
2017-Jun-23 07:00N 66°33' E 013°09'4 8.3
2017-Jun-23 06:30N 66°37' E 013°04'2 3.7
2017-Jun-23 06:00N 66°38' E 013°01'4 7.3
2017-Jun-23 05:30N 66°35' E 012°59'3 5.9
2017-Jun-23 05:00N 66°34' E 012°52'1 2.3
2017-Jun-23 04:30N 66°34' E 012°49'4 8.3
2017-Jun-23 04:00N 66°36' E 012°40'0 0.0
2017-Jun-23 03:30N 66°36' E 012°40'0 0.0
2017-Jun-23 03:00N 66°36' E 012°40'0 0.0
2017-Jun-23 02:30N 66°36' E 012°40'0 0.0
2017-Jun-23 02:00N 66°36' E 012°40'0 0.0
2017-Jun-23 01:29N 66°36' E 012°40'0 0.0
2017-Jun-23 01:00N 66°36' E 012°40'0 0.0
2017-Jun-23 00:30N 66°36' E 012°40'0 0.0
2017-Jun-23 00:00N 66°36' E 012°40'0 0.0
2017-Jun-22 23:30N 66°36' E 012°40'0 0.0
2017-Jun-22 23:00N 66°36' E 012°40'0 0.0
2017-Jun-22 22:30N 66°36' E 012°40'0 0.0
2017-Jun-22 22:00N 66°36' E 012°40'0 0.0
2017-Jun-22 21:30N 66°36' E 012°40'0 0.0
2017-Jun-22 21:00N 66°36' E 012°40'0 0.0
2017-Jun-22 20:30N 66°36' E 012°40'0 0.0
2017-Jun-22 20:00N 66°36' E 012°40'0 0.0
2017-Jun-22 19:30N 66°36' E 012°40'0 0.0
2017-Jun-22 19:00N 66°36' E 012°40'0 0.0
2017-Jun-22 18:30N 66°36' E 012°40'4 7.7
2017-Jun-22 18:00N 66°34' E 012°48'4 7.0
2017-Jun-22 17:30N 66°36' E 012°55'4 7.0
2017-Jun-22 16:59N 66°39' E 013°01'3 6.8
2017-Jun-22 16:30N 66°38' E 013°10'3 6.1
2017-Jun-22 16:00N 66°37' E 013°17'4 7.0
2017-Jun-22 15:30N 66°38' E 013°09'2 4.7
2017-Jun-22 15:00N 66°39' E 013°03'4 7.6
2017-Jun-22 14:30N 66°35' E 012°59'5 5.2
2017-Jun-22 13:30N 66°34' E 012°46'3 5.6
2017-Jun-22 13:00N 66°36' E 012°40'0 0.0
2017-Jun-22 12:30N 66°36' E 012°40'0 0.0
2017-Jun-22 12:00N 66°36' E 012°40'1 1.6
2017-Jun-22 11:30N 66°36' E 012°42'4 8.2
2017-Jun-22 11:00N 66°34' E 012°50'3 6.8
2017-Jun-22 10:30N 66°35' E 012°59'2 4.6
2017-Jun-22 10:00N 66°37' E 012°60'3 5.1
2017-Jun-22 09:30N 66°39' E 013°03'3 5.8
2017-Jun-22 09:00N 66°38' E 013°11'3 5.4
2017-Jun-22 08:29N 66°37' E 013°17'0 0.0
2017-Jun-22 08:00N 66°37' E 013°17'2 3.3
2017-Jun-22 07:30N 66°38' E 013°13'4 7.6
2017-Jun-22 07:00N 66°39' E 013°05'3 6.3
2017-Jun-22 06:30N 66°37' E 012°59'3 7.1
2017-Jun-22 06:00N 66°34' E 012°57'3 5.8
2017-Jun-22 05:30N 66°34' E 012°49'4 8.9
2017-Jun-22 05:00N 66°36' E 012°40'0 0.1
2017-Jun-22 04:29N 66°36' E 012°40'0 0.0
2017-Jun-22 04:00N 66°36' E 012°40'0 0.0
2017-Jun-22 03:30N 66°36' E 012°40'0 0.0
2017-Jun-22 03:00N 66°36' E 012°40'0 0.0
2017-Jun-22 02:30N 66°36' E 012°40'0 0.0
2017-Jun-22 02:00N 66°36' E 012°40'0 0.0
2017-Jun-22 01:30N 66°36' E 012°40'0 0.0
2017-Jun-22 01:00N 66°36' E 012°40'0 0.0
2017-Jun-22 00:30N 66°36' E 012°40'0 0.0
2017-Jun-22 00:00N 66°36' E 012°40'0 0.0
2017-Jun-21 23:30N 66°36' E 012°40'0 0.0
2017-Jun-21 23:00N 66°36' E 012°40'0 0.0
2017-Jun-21 22:30N 66°36' E 012°40'0 0.0
2017-Jun-21 22:00N 66°36' E 012°40'0 0.0
2017-Jun-21 21:30N 66°36' E 012°40'2 3.8
2017-Jun-21 21:00N 66°35' E 012°44'3 6.6
2017-Jun-21 20:30N 66°34' E 012°52'3 5.9
2017-Jun-21 20:00N 66°35' E 012°59'4 7.1
2017-Jun-21 19:29N 66°39' E 013°01'3 6.5
2017-Jun-21 19:00N 66°38' E 013°09'3 6.5
2017-Jun-21 18:30N 66°37' E 013°17'0 0.2
2017-Jun-21 18:00N 66°37' E 013°17'0 0.3
2017-Jun-21 17:30N 66°37' E 013°17'0 0.0
2017-Jun-21 17:00N 66°37' E 013°17'0 0.0
2017-Jun-21 16:30N 66°37' E 013°17'0 0.1
2017-Jun-21 16:00N 66°37' E 013°17'2 4.6
2017-Jun-21 15:30N 66°38' E 013°11'3 6.6
2017-Jun-21 15:00N 66°39' E 013°03'6 6.2
2017-Jun-21 14:00N 66°34' E 012°54'3 6.7
2017-Jun-21 13:30N 66°34' E 012°46'3 1.5
2017-Jun-21 11:38N 66°36' E 012°40'0 0.0
2017-Jun-21 11:00N 66°36' E 012°40'3 5.5
2017-Jun-21 10:30N 66°34' E 012°46'4 6.9
2017-Jun-21 09:57N 66°34' E 012°55'3 5.7
2017-Jun-21 09:30N 66°36' E 012°59'3 6.0
2017-Jun-21 08:58N 66°39' E 013°02'1 0.4
2017-Jun-21 06:55N 66°39' E 013°04'3 6.5
2017-Jun-21 06:28N 66°37' E 012°59'4 7.7
2017-Jun-21 06:00N 66°33' E 012°56'3 5.7
2017-Jun-21 05:29N 66°34' E 012°49'4 0.5
2017-Jun-20 20:49N 66°36' E 012°40'3 9.4
2017-Jun-20 20:29N 66°36' E 012°48'5 6.0
2017-Jun-20 19:43N 66°36' E 012°59'1 5.6
2017-Jun-20 19:30N 66°37' E 012°59'3 1.7
2017-Jun-20 17:36N 66°39' E 013°06'1 4.4
2017-Jun-20 17:27N 66°39' E 013°04'3 6.7
2017-Jun-20 17:00N 66°37' E 012°59'4 7.3
2017-Jun-20 16:29N 66°34' E 012°56'3 6.6
2017-Jun-20 15:59N 66°34' E 012°47'4 1.4
2017-Jun-20 13:27N 66°36' E 012°40'0 0.0
2017-Jun-20 12:38N 66°36' E 012°40'0 0.0
2017-Jun-20 11:19N 66°36' E 012°40'3 9.4
2017-Jun-20 11:00N 66°34' E 012°46'3 6.7
2017-Jun-20 10:30N 66°34' E 012°55'3 5.7
2017-Jun-20 09:57N 66°36' E 012°59'3 5.1
2017-Jun-20 09:27N 66°39' E 013°02'2 4.1
2017-Jun-20 09:00N 66°39' E 013°06'4 3.8
2017-Jun-20 07:53N 66°35' E 013°11'4 9.6
2017-Jun-20 07:30N 66°31' E 013°13'1 2.5
2017-Jun-20 06:59N 66°30' E 013°14'4 9.0
2017-Jun-20 06:30N 66°34' E 013°08'5 8.6
2017-Jun-20 05:54N 66°39' E 013°04'2 5.9
2017-Jun-20 05:30N 66°38' E 012°60'4 7.9
2017-Jun-20 04:58N 66°34' E 012°57'3 7.0
2017-Jun-20 04:29N 66°34' E 012°49'4 0.4
2017-Jun-19 18:52N 66°36' E 012°40'3 9.1
2017-Jun-19 18:30N 66°34' E 012°47'3 6.8
2017-Jun-19 18:00N 66°34' E 012°56'3 6.0
2017-Jun-19 17:28N 66°36' E 012°59'3 5.4
2017-Jun-19 16:59N 66°39' E 013°02'2 0.9
2017-Jun-19 15:11N 66°39' E 013°06'1 4.2
2017-Jun-19 14:59N 66°39' E 013°04'4 7.5
2017-Jun-19 14:30N 66°36' E 012°59'6 5.6
2017-Jun-19 13:30N 66°34' E 012°46'3 4.2
2017-Jun-19 12:51N 66°36' E 012°40'0 0.0
2017-Jun-19 12:30N 66°36' E 012°40'0 0.0
2017-Jun-19 12:00N 66°36' E 012°40'0 0.0
2017-Jun-19 11:30N 66°36' E 012°40'4 8.4
2017-Jun-19 11:00N 66°34' E 012°49'3 5.7
2017-Jun-19 10:30N 66°33' E 012°56'3 5.5
2017-Jun-19 10:00N 66°36' E 012°59'1 2.6
2017-Jun-19 09:30N 66°37' E 012°59'3 5.7
2017-Jun-19 08:59N 66°39' E 013°04'3 6.5
2017-Jun-19 08:30N 66°38' E 013°12'2 4.3
2017-Jun-19 08:00N 66°37' E 013°17'2 3.3
2017-Jun-19 07:30N 66°38' E 013°13'4 7.5
2017-Jun-19 07:00N 66°39' E 013°04'3 6.3
2017-Jun-19 06:30N 66°37' E 012°60'3 6.9
2017-Jun-19 06:00N 66°34' E 012°57'3 6.0
2017-Jun-19 05:30N 66°34' E 012°49'4 8.7
2017-Jun-19 05:00N 66°36' E 012°40'0 0.1
2017-Jun-19 04:30N 66°36' E 012°40'0 0.0
2017-Jun-19 04:00N 66°36' E 012°40'0 0.0
2017-Jun-19 03:30N 66°36' E 012°40'0 0.0
2017-Jun-19 03:00N 66°36' E 012°40'0 0.0
2017-Jun-19 02:30N 66°36' E 012°40'0 0.0
2017-Jun-19 02:00N 66°36' E 012°40'0 0.0
2017-Jun-19 01:30N 66°36' E 012°40'0 0.0
2017-Jun-19 01:00N 66°36' E 012°40'0 0.0
2017-Jun-19 00:30N 66°36' E 012°40'0 0.0
2017-Jun-19 00:00N 66°36' E 012°40'0 0.0
2017-Jun-18 23:30N 66°36' E 012°40'0 0.0
2017-Jun-18 23:00N 66°36' E 012°40'0 0.0
2017-Jun-18 22:30N 66°36' E 012°40'0 0.0
2017-Jun-18 21:59N 66°36' E 012°40'1 1.4
2017-Jun-18 21:30N 66°36' E 012°41'4 8.5
2017-Jun-18 21:00N 66°34' E 012°50'3 6.9
2017-Jun-18 20:30N 66°35' E 012°59'3 5.8
2017-Jun-18 20:00N 66°38' E 012°59'3 5.5
2017-Jun-18 19:30N 66°39' E 013°05'5 9.1
2017-Jun-18 19:00N 66°38' E 013°16'3 6.1
2017-Jun-18 18:30N 66°35' E 013°11'4 9.0
2017-Jun-18 18:00N 66°31' E 013°14'1 1.1
2017-Jun-18 17:30N 66°31' E 013°13'4 8.6
2017-Jun-18 16:59N 66°36' E 013°12'3 5.1
2017-Jun-18 16:30N 66°38' E 013°16'5 9.5
2017-Jun-18 16:00N 66°39' E 013°04'3 6.0
2017-Jun-18 15:30N 66°37' E 012°60'3 5.9
2017-Jun-18 15:00N 66°34' E 012°58'8 7.6
2017-Jun-18 14:00N 66°36' E 012°40'0 0.0
2017-Jun-18 13:30N 66°36' E 012°40'0 0.0
2017-Jun-18 13:00N 66°36' E 012°40'0 0.0
2017-Jun-18 12:29N 66°36' E 012°40'0 0.0
2017-Jun-18 11:59N 66°36' E 012°40'0 0.0
2017-Jun-18 11:30N 66°36' E 012°40'0 0.0
2017-Jun-18 11:00N 66°36' E 012°40'0 0.0
2017-Jun-18 10:30N 66°36' E 012°40'0 0.0
2017-Jun-18 10:00N 66°36' E 012°40'0 0.0
2017-Jun-18 09:29N 66°36' E 012°40'0 0.0
2017-Jun-18 08:59N 66°36' E 012°40'0 0.0
2017-Jun-18 08:30N 66°36' E 012°40'0 0.0
2017-Jun-18 08:00N 66°36' E 012°40'0 0.0
2017-Jun-18 07:30N 66°36' E 012°40'0 0.0
2017-Jun-18 07:00N 66°36' E 012°40'0 0.0
2017-Jun-18 06:30N 66°36' E 012°40'0 0.0
2017-Jun-18 06:00N 66°36' E 012°40'0 0.0
2017-Jun-18 05:30N 66°36' E 012°40'0 0.0
2017-Jun-18 05:00N 66°36' E 012°40'0 0.0
2017-Jun-18 04:30N 66°36' E 012°40'0 0.0
2017-Jun-18 03:59N 66°36' E 012°40'0 0.0
2017-Jun-18 03:30N 66°36' E 012°40'0 0.0
2017-Jun-18 03:00N 66°36' E 012°40'0 0.0
2017-Jun-18 02:30N 66°36' E 012°40'0 0.0
2017-Jun-18 02:00N 66°36' E 012°40'0 0.0
2017-Jun-18 01:30N 66°36' E 012°40'0 0.0
2017-Jun-18 01:00N 66°36' E 012°40'0 0.0
2017-Jun-18 00:30N 66°36' E 012°40'0 0.0
2017-Jun-18 00:00N 66°36' E 012°40'0 0.0
2017-Jun-17 23:29N 66°36' E 012°40'0 0.0
2017-Jun-17 23:00N 66°36' E 012°40'0 0.0
2017-Jun-17 22:29N 66°36' E 012°40'0 0.0
2017-Jun-17 22:00N 66°36' E 012°40'0 0.0
2017-Jun-17 21:30N 66°36' E 012°40'0 0.0
2017-Jun-17 21:00N 66°36' E 012°40'0 0.0
2017-Jun-17 20:30N 66°36' E 012°40'0 0.0
2017-Jun-17 20:00N 66°36' E 012°40'0 0.0
2017-Jun-17 19:30N 66°36' E 012°40'0 0.0
2017-Jun-17 19:00N 66°36' E 012°40'0 0.0
2017-Jun-17 18:30N 66°36' E 012°40'0 0.0
2017-Jun-17 18:00N 66°36' E 012°40'0 0.0
2017-Jun-17 17:30N 66°36' E 012°40'0 0.0
2017-Jun-17 17:00N 66°36' E 012°40'0 0.0
2017-Jun-17 16:30N 66°36' E 012°40'0 0.0
2017-Jun-17 16:00N 66°36' E 012°40'0 0.0
2017-Jun-17 15:30N 66°36' E 012°40'0 0.0
2017-Jun-17 15:00N 66°36' E 012°40'0 0.0
2017-Jun-17 14:30N 66°36' E 012°40'0 0.0
2017-Jun-17 13:30N 66°36' E 012°40'0 0.0
2017-Jun-17 13:00N 66°36' E 012°40'0 0.0
2017-Jun-17 12:30N 66°36' E 012°40'0 0.0
2017-Jun-17 12:00N 66°36' E 012°40'0 0.0
2017-Jun-17 11:30N 66°36' E 012°40'0 0.0
2017-Jun-17 10:59N 66°36' E 012°40'1 2.9
2017-Jun-17 10:31N 66°35' E 012°43'4 7.9
2017-Jun-17 10:00N 66°34' E 012°53'3 5.8
2017-Jun-17 09:30N 66°36' E 012°59'3 6.1
2017-Jun-17 09:00N 66°39' E 013°01'3 6.8
2017-Jun-17 08:30N 66°38' E 013°10'3 6.1
2017-Jun-17 08:00N 66°37' E 013°17'2 3.2
2017-Jun-17 07:30N 66°38' E 013°13'4 7.6
2017-Jun-17 07:00N 66°39' E 013°04'3 6.2
2017-Jun-17 06:30N 66°37' E 012°60'  

Dump ship's entire track history